Time;durP1;ratioP1;P1;durP2;ratioP2;P2;SDS_P1;SDS_P2;PMS_P1;PMS_P2;Temp;Humidity;BMP_temperature;BMP_pressure;BME280_temperature;BME280_humidity;BME280_pressure;Samples;Min_cycle;Max_cycle;Signal;HPM_P1;HPM_P2
2022/08/31 00:04:03;;;;;;;7.00;1.50;;;18.80;99.90;;;;;;5096037;28;20185;-72
2022/08/31 00:06:31;;;;;;;1.73;1.23;;;19.00;99.90;;;;;;5095825;28;20518;-71
2022/08/31 00:08:57;;;;;;;2.07;1.70;;;19.00;99.90;;;;;;5095702;28;20170;-70
2022/08/31 00:11:30;;;;;;;2.80;2.17;;;18.90;99.90;;;;;;5095924;28;20275;-73
2022/08/31 00:14:02;;;;;;;2.77;2.10;;;18.80;99.90;;;;;;5095385;28;20304;-72
2022/08/31 00:16:31;;;;;;;1.90;1.80;;;18.80;99.90;;;;;;5095626;28;20199;-74
2022/08/31 00:18:57;;;;;;;2.23;2.07;;;18.80;99.90;;;;;;5095620;28;20167;-74
2022/08/31 00:21:27;;;;;;;4.07;2.17;;;18.70;99.90;;;;;;5094624;28;20175;-73
2022/08/31 00:23:54;;;;;;;3.03;1.73;;;18.70;99.90;;;;;;5095603;28;20167;-72
2022/08/31 00:26:21;;;;;;;1.97;1.70;;;18.60;99.90;;;;;;5095492;28;20186;-72
2022/08/31 00:28:47;;;;;;;1.90;1.77;;;18.40;99.90;;;;;;5095285;28;20589;-72
2022/08/31 00:31:13;;;;;;;2.20;1.93;;;18.30;99.90;;;;;;5095617;28;20206;-72
2022/08/31 00:33:39;;;;;;;3.90;1.60;;;18.20;99.90;;;;;;5095520;28;20171;-72
2022/08/31 00:36:08;;;;;;;2.20;1.40;;;17.80;99.90;;;;;;5095486;28;20163;-70
2022/08/31 00:38:34;;;;;;;3.33;1.93;;;17.20;99.90;;;;;;5095557;28;20178;-73
2022/08/31 00:41:00;;;;;;;2.47;2.33;;;16.70;99.90;;;;;;5095267;28;20175;-72
2022/08/31 00:43:40;;;;;;;2.63;1.63;;;16.60;99.90;;;;;;5095441;28;20179;-74
2022/08/31 00:46:08;;;;;;;4.77;2.00;;;16.50;99.90;;;;;;5095539;28;20181;-70
2022/08/31 00:48:38;;;;;;;1.80;1.70;;;19.20;99.90;;;;;;5095281;28;20182;-71
2022/08/31 00:51:04;;;;;;;2.33;1.60;;;19.10;99.90;;;;;;5095348;28;20610;-71
2022/08/31 00:53:30;;;;;;;1.57;1.43;;;19.10;99.90;;;;;;5095413;28;20190;-71
2022/08/31 00:55:55;;;;;;;7.13;1.70;;;19.20;99.90;;;;;;5095171;28;20250;-72
2022/08/31 00:58:22;;;;;;;5.50;2.00;;;19.10;99.90;;;;;;5096675;28;20178;-72
2022/08/31 01:00:48;;;;;;;4.93;1.93;;;19.10;99.90;;;;;;5098780;28;20186;-71
2022/08/31 01:03:15;;;;;;;1.63;1.50;;;19.10;99.90;;;;;;5099159;28;20182;-71
2022/08/31 01:05:41;;;;;;;1.93;1.83;;;19.00;99.90;;;;;;5098955;28;20171;-72
2022/08/31 01:08:07;;;;;;;4.20;1.80;;;19.00;99.90;;;;;;5098948;28;20174;-71
2022/08/31 01:10:40;;;;;;;5.50;2.10;;;18.90;99.90;;;;;;5098442;28;20222;-73
2022/08/31 01:13:07;;;;;;;2.10;1.40;;;18.90;99.90;;;;;;5098896;28;20479;-72
2022/08/31 01:15:35;;;;;;;3.27;1.90;;;18.80;99.90;;;;;;5098821;28;20208;-73
2022/08/31 01:18:03;;;;;;;21.43;2.67;;;18.80;99.90;;;;;;5098801;28;20163;-72
2022/08/31 01:20:52;;;;;;;4.10;1.73;;;18.80;99.90;;;;;;5098506;28;20182;-71
2022/08/31 01:23:26;;;;;;;1.83;1.73;;;18.80;99.90;;;;;;5097653;28;20182;-71
2022/08/31 01:25:55;;;;;;;2.77;1.80;;;18.90;99.90;;;;;;5098207;28;20178;-70
2022/08/31 01:28:21;;;;;;;2.70;1.83;;;18.90;99.90;;;;;;5097337;28;20537;-71
2022/08/31 01:31:15;;;;;;;1.73;1.63;;;18.80;99.90;;;;;;5098449;28;20291;-71
2022/08/31 01:33:40;;;;;;;1.57;1.43;;;18.90;99.90;;;;;;5097559;28;20183;-71
2022/08/31 01:36:07;;;;;;;3.80;2.10;;;18.90;99.90;;;;;;5098386;28;20170;-72
2022/08/31 01:38:34;;;;;;;2.43;1.60;;;19.00;99.90;;;;;;5098285;28;20468;-72
2022/08/31 01:41:02;;;;;;;2.07;1.97;;;18.90;99.90;;;;;;5097978;28;20590;-72
2022/08/31 01:43:29;;;;;;;3.10;1.40;;;18.90;99.90;;;;;;5098214;28;20170;-72
2022/08/31 01:45:55;;;;;;;6.07;1.97;;;18.90;99.90;;;;;;5098114;28;20241;-71
2022/08/31 01:48:22;;;;;;;3.07;1.63;;;18.80;99.90;;;;;;5098215;28;20313;-71
2022/08/31 01:50:48;;;;;;;4.70;2.10;;;18.70;99.90;;;;;;5096891;28;20281;-72
2022/08/31 01:53:14;;;;;;;1.80;1.70;;;18.60;99.90;;;;;;5098067;28;20663;-71
2022/08/31 01:55:41;;;;;;;1.97;1.73;;;18.40;99.90;;;;;;5097884;28;20167;-71
2022/08/31 01:58:06;;;;;;;3.40;2.77;;;18.30;99.90;;;;;;5096829;28;20216;-71
2022/08/31 02:00:33;;;;;;;4.60;2.63;;;18.20;99.90;;;;;;5097600;28;20191;-71
2022/08/31 02:03:01;;;;;;;2.77;1.93;;;17.90;99.90;;;;;;5097642;28;20173;-73
2022/08/31 02:05:27;;;;;;;3.47;3.17;;;17.70;99.90;;;;;;5097605;28;20177;-70
2022/08/31 02:07:54;;;;;;;3.63;2.20;;;17.70;99.90;;;;;;5097179;28;20171;-70
2022/08/31 02:10:20;;;;;;;2.30;2.10;;;17.70;99.90;;;;;;5097160;28;20645;-70
2022/08/31 02:12:47;;;;;;;1.73;1.63;;;17.50;99.90;;;;;;5097772;28;20198;-73
2022/08/31 02:15:13;;;;;;;2.90;2.50;;;16.80;99.90;;;;;;5097442;28;20750;-71
2022/08/31 02:17:39;;;;;;;2.03;1.83;;;16.40;99.90;;;;;;5097618;28;20246;-71
2022/08/31 02:20:07;;;;;;;6.13;2.00;;;15.40;99.90;;;;;;5097508;28;20165;-70
2022/08/31 02:22:32;;;;;;;5.90;2.33;;;14.70;99.90;;;;;;5097182;28;20174;-71
2022/08/31 02:24:58;;;;;;;2.17;2.00;;;14.70;99.90;;;;;;5097650;28;20179;-70
2022/08/31 02:27:24;;;;;;;3.17;2.20;;;14.60;99.90;;;;;;5096275;28;20182;-72
2022/08/31 02:29:50;;;;;;;4.50;1.97;;;14.30;99.90;;;;;;5096377;28;20210;-71
2022/08/31 02:32:16;;;;;;;5.43;2.53;;;13.30;99.90;;;;;;5097308;28;20228;-71
2022/08/31 02:34:43;;;;;;;4.83;1.87;;;14.70;99.90;;;;;;5097863;28;20167;-71
2022/08/31 02:37:09;;;;;;;2.03;1.93;;;15.20;99.90;;;;;;5097186;28;20637;-72
2022/08/31 02:39:35;;;;;;;1.80;1.70;;;15.10;99.90;;;;;;5097385;28;20206;-70
2022/08/31 02:42:01;;;;;;;2.37;2.17;;;15.50;99.90;;;;;;5097123;28;20178;-70
2022/08/31 02:44:26;;;;;;;1.97;1.87;;;15.40;99.90;;;;;;5096058;28;20171;-72
2022/08/31 02:46:52;;;;;;;4.77;2.43;;;15.50;99.90;;;;;;5097107;28;20180;-70
2022/08/31 02:49:18;;;;;;;3.23;2.10;;;15.60;99.90;;;;;;5097089;28;20617;-71
2022/08/31 02:51:44;;;;;;;7.23;2.50;;;15.50;99.90;;;;;;5097146;28;20206;-70
2022/08/31 02:54:10;;;;;;;5.30;2.40;;;15.60;99.90;;;;;;5098464;28;20197;-71
2022/08/31 02:56:37;;;;;;;2.30;2.07;;;15.70;99.90;;;;;;5098001;28;20163;-71
2022/08/31 02:59:03;;;;;;;3.30;2.63;;;15.60;99.90;;;;;;5098075;28;20170;-71
2022/08/31 03:01:29;;;;;;;2.47;2.27;;;15.80;99.90;;;;;;5098961;28;20191;-70
2022/08/31 03:03:55;;;;;;;2.47;2.27;;;15.70;99.90;;;;;;5098887;28;20234;-72
2022/08/31 03:06:21;;;;;;;5.67;1.97;;;15.70;99.90;;;;;;5097041;28;20228;-73
2022/08/31 03:08:47;;;;;;;6.90;3.33;;;15.80;99.90;;;;;;5096906;28;20170;-72
2022/08/31 03:11:14;;;;;;;2.20;2.07;;;15.80;99.90;;;;;;5096718;28;20197;-74
2022/08/31 03:13:41;;;;;;;4.60;2.60;;;15.70;99.90;;;;;;5095664;28;20257;-73
2022/08/31 03:16:07;;;;;;;2.50;2.30;;;15.70;99.90;;;;;;5096529;28;20166;-72
2022/08/31 03:18:33;;;;;;;2.40;2.20;;;15.70;99.90;;;;;;5096400;28;20190;-70
2022/08/31 03:20:58;;;;;;;2.80;2.50;;;16.00;99.90;;;;;;5095635;28;20199;-70
2022/08/31 03:23:25;;;;;;;2.50;2.10;;;15.90;99.90;;;;;;5095255;28;20213;-71
2022/08/31 03:25:50;;;;;;;7.77;2.30;;;16.00;99.90;;;;;;5096477;28;20600;-72
2022/08/31 03:28:16;;;;;;;4.97;2.40;;;15.70;99.90;;;;;;5096162;28;20202;-72
2022/08/31 03:30:42;;;;;;;5.37;1.87;;;15.70;99.90;;;;;;5096337;28;20205;-73
2022/08/31 03:33:08;;;;;;;3.47;1.97;;;15.80;99.90;;;;;;5096218;28;20170;-72
2022/08/31 03:35:34;;;;;;;4.43;2.47;;;15.90;99.90;;;;;;5096081;28;20167;-72
2022/08/31 03:38:01;;;;;;;2.50;2.40;;;16.00;99.90;;;;;;5096096;28;20171;-71
2022/08/31 03:40:27;;;;;;;4.17;2.53;;;16.00;99.90;;;;;;5096331;28;20353;-70
2022/08/31 03:42:55;;;;;;;2.57;2.37;;;15.70;99.90;;;;;;5096161;28;20166;-70
2022/08/31 03:45:20;;;;;;;2.90;2.70;;;15.60;99.90;;;;;;5096138;28;20331;-71
2022/08/31 03:47:46;;;;;;;1.87;1.77;;;15.60;99.90;;;;;;5095813;28;20606;-71
2022/08/31 03:50:14;;;;;;;2.57;2.47;;;15.90;99.90;;;;;;5095602;28;20226;-70
2022/08/31 03:52:40;;;;;;;4.50;2.97;;;15.90;99.90;;;;;;5096022;28;20174;-72
2022/08/31 03:55:08;;;;;;;2.20;2.03;;;15.90;99.90;;;;;;5094903;28;20167;-71
2022/08/31 03:57:34;;;;;;;1.90;1.77;;;16.10;99.90;;;;;;5095695;28;20275;-72
2022/08/31 03:59:59;;;;;;;4.90;2.67;;;16.00;99.90;;;;;;5095992;28;20243;-71
2022/08/31 04:02:25;;;;;;;12.10;3.00;;;16.00;99.90;;;;;;5095446;28;20173;-71
2022/08/31 04:04:53;;;;;;;2.77;2.40;;;16.10;99.90;;;;;;5095852;28;20191;-72
2022/08/31 04:07:20;;;;;;;6.90;2.80;;;16.00;99.90;;;;;;5095858;28;20190;-72
2022/08/31 04:09:47;;;;;;;4.20;2.47;;;15.80;99.90;;;;;;5095710;28;20177;-71
2022/08/31 04:12:14;;;;;;;3.23;2.60;;;15.70;99.90;;;;;;5095665;28;20198;-71
2022/08/31 04:14:41;;;;;;;6.33;3.03;;;15.50;99.90;;;;;;5095724;28;20174;-71
2022/08/31 04:17:09;;;;;;;6.03;2.37;;;15.20;99.90;;;;;;5095661;28;20816;-72
2022/08/31 04:19:36;;;;;;;2.70;2.40;;;15.90;99.90;;;;;;5095408;28;20175;-73
2022/08/31 04:22:01;;;;;;;5.30;2.40;;;15.80;99.90;;;;;;5095784;28;20170;-72
2022/08/31 04:24:28;;;;;;;4.60;2.50;;;15.60;99.90;;;;;;5095462;28;20534;-72
2022/08/31 04:26:54;;;;;;;3.10;2.83;;;15.60;99.90;;;;;;5094609;28;20205;-71
2022/08/31 04:29:20;;;;;;;3.23;3.03;;;15.70;99.90;;;;;;5094565;28;20236;-71
2022/08/31 04:31:46;;;;;;;2.67;2.43;;;15.80;99.90;;;;;;5095952;28;20215;-72
2022/08/31 04:34:12;;;;;;;9.37;3.60;;;15.80;99.90;;;;;;5099127;28;20167;-72
2022/08/31 04:36:38;;;;;;;3.50;2.70;;;15.80;99.90;;;;;;5099448;28;20194;-72
2022/08/31 04:39:06;;;;;;;2.63;2.20;;;15.80;99.90;;;;;;5099489;28;20212;-71
2022/08/31 04:41:34;;;;;;;7.70;3.47;;;15.60;99.90;;;;;;5099520;28;20178;-72
2022/08/31 04:44:02;;;;;;;3.40;3.00;;;15.30;99.90;;;;;;5099333;28;20174;-72
2022/08/31 04:46:29;;;;;;;5.50;3.03;;;15.00;99.90;;;;;;5099222;28;20554;-72
2022/08/31 04:48:56;;;;;;;4.63;2.97;;;15.00;99.90;;;;;;5098923;28;20202;-72
2022/08/31 04:51:29;;;;;;;3.10;2.90;;;15.30;99.90;;;;;;5099230;28;20202;-71
2022/08/31 04:53:56;;;;;;;6.03;2.90;;;15.40;99.90;;;;;;5099223;28;20171;-72
2022/08/31 04:56:25;;;;;;;3.17;2.93;;;15.30;99.90;;;;;;5099168;28;20174;-74
2022/08/31 04:58:57;;;;;;;4.53;3.03;;;15.30;99.90;;;;;;5098998;28;20182;-72
2022/08/31 05:01:25;;;;;;;5.33;3.60;;;14.80;99.90;;;;;;5098928;28;20195;-72
2022/08/31 05:03:54;;;;;;;3.70;3.40;;;16.50;99.90;;;;;;5098723;28;20181;-73
2022/08/31 05:06:23;;;;;;;60.97;17.53;;;16.50;99.90;;;;;;5098841;28;20212;-73
2022/08/31 05:08:58;;;;;;;4.23;3.13;;;16.60;99.90;;;;;;5098856;28;20175;-73
2022/08/31 05:11:26;;;;;;;5.90;3.03;;;16.50;99.90;;;;;;5098765;28;20194;-73
2022/08/31 05:13:52;;;;;;;4.80;2.60;;;16.40;99.90;;;;;;5098748;28;20178;-72
2022/08/31 05:16:19;;;;;;;5.90;3.57;;;16.20;99.90;;;;;;5098473;28;20178;-72
2022/08/31 05:18:47;;;;;;;9.60;3.23;;;16.40;99.90;;;;;;5098717;28;20249;-73
2022/08/31 05:21:19;;;;;;;3.87;3.53;;;17.20;99.90;;;;;;5098568;28;20258;-71
2022/08/31 05:23:47;;;;;;;7.77;3.87;;;17.40;99.90;;;;;;5098662;28;20175;-72
2022/08/31 05:26:22;;;;;;;4.50;2.90;;;17.50;99.90;;;;;;5098415;28;20170;-71
2022/08/31 05:28:48;;;;;;;6.13;3.93;;;17.70;99.90;;;;;;5098314;28;20570;-71
2022/08/31 05:31:14;;;;;;;7.33;3.90;;;17.70;99.90;;;;;;5097982;28;20259;-75
2022/08/31 05:33:41;;;;;;;4.57;3.53;;;17.70;99.90;;;;;;5097365;28;20260;-71
2022/08/31 05:36:08;;;;;;;2.90;2.70;;;17.70;99.90;;;;;;5098254;28;20162;-72
2022/08/31 05:38:34;;;;;;;4.17;3.87;;;17.70;99.90;;;;;;5098498;28;20171;-70
2022/08/31 05:41:00;;;;;;;8.57;3.90;;;17.70;99.90;;;;;;5098288;28;20235;-71
2022/08/31 05:43:27;;;;;;;8.57;3.47;;;17.70;99.90;;;;;;5097602;28;20602;-74
2022/08/31 05:45:54;;;;;;;3.77;2.83;;;17.70;99.90;;;;;;5097896;28;20186;-72
2022/08/31 05:48:21;;;;;;;3.30;2.87;;;17.80;99.90;;;;;;5098220;28;20174;-70
2022/08/31 05:50:47;;;;;;;5.03;3.13;;;17.80;99.90;;;;;;5097947;28;20251;-73
2022/08/31 05:53:14;;;;;;;3.77;3.47;;;17.80;99.90;;;;;;5098075;28;20174;-71
2022/08/31 05:55:40;;;;;;;5.03;3.33;;;17.80;99.90;;;;;;5098081;28;20177;-69
2022/08/31 05:58:06;;;;;;;3.40;2.83;;;17.70;99.90;;;;;;5097994;28;20179;-72
2022/08/31 06:00:33;;;;;;;5.00;3.80;;;17.70;99.90;;;;;;5097420;28;20198;-71
2022/08/31 06:02:59;;;;;;;3.27;2.80;;;17.80;99.90;;;;;;5097958;28;20179;-73
2022/08/31 06:05:25;;;;;;;4.67;3.03;;;17.70;99.90;;;;;;5097784;28;20167;-74
2022/08/31 06:07:51;;;;;;;3.93;2.53;;;17.70;99.90;;;;;;5097785;28;20219;-72
2022/08/31 06:10:17;;;;;;;4.53;3.53;;;17.80;99.90;;;;;;5097428;28;20190;-73
2022/08/31 06:12:45;;;;;;;5.50;3.73;;;17.80;99.90;;;;;;5097771;28;20167;-72
2022/08/31 06:15:11;;;;;;;5.73;3.53;;;17.80;99.90;;;;;;5097445;28;20221;-72
2022/08/31 06:17:36;;;;;;;5.73;3.33;;;17.80;99.90;;;;;;5097627;28;20163;-71
2022/08/31 06:20:04;;;;;;;4.40;3.63;;;17.80;99.90;;;;;;5097487;28;20515;-76
2022/08/31 06:22:32;;;;;;;7.07;4.17;;;17.80;99.90;;;;;;5097374;28;20245;-74
2022/08/31 06:25:01;;;;;;;4.70;3.43;;;17.80;99.90;;;;;;5097464;28;20562;-75
2022/08/31 06:27:28;;;;;;;7.20;3.83;;;17.90;99.90;;;;;;5097450;28;20163;-77
2022/08/31 06:29:54;;;;;;;5.00;3.70;;;17.90;99.90;;;;;;5097294;28;20278;-76
2022/08/31 06:32:19;;;;;;;13.17;3.83;;;18.00;99.90;;;;;;5097089;28;20544;-73
2022/08/31 06:34:45;;;;;;;6.07;3.60;;;18.00;99.90;;;;;;5097553;28;20174;-72
2022/08/31 06:37:12;;;;;;;5.27;4.27;;;18.10;99.90;;;;;;5097197;28;20190;-73
2022/08/31 06:39:38;;;;;;;4.70;2.83;;;18.10;99.90;;;;;;5097250;28;20170;-79
2022/08/31 06:42:04;;;;;;;6.70;4.00;;;18.10;99.90;;;;;;5096079;28;20174;-73
2022/08/31 06:44:30;;;;;;;11.13;3.30;;;18.20;99.90;;;;;;5096681;28;20177;-76
2022/08/31 06:46:56;;;;;;;4.87;3.83;;;18.30;99.90;;;;;;5096919;28;20517;-76
2022/08/31 06:49:22;;;;;;;4.50;3.47;;;18.30;99.90;;;;;;5096938;28;20195;-78
2022/08/31 06:51:49;;;;;;;5.60;3.63;;;18.30;99.90;;;;;;5095815;28;20498;-73
2022/08/31 06:54:17;;;;;;;4.60;4.00;;;18.30;99.90;;;;;;5097009;28;20187;-74
2022/08/31 06:56:43;;;;;;;4.10;3.80;;;18.30;99.90;;;;;;5095778;28;20159;-75
2022/08/31 06:59:09;;;;;;;9.67;4.13;;;18.20;99.90;;;;;;5096671;28;20174;-75
2022/08/31 07:01:35;;;;;;;5.30;3.63;;;18.10;99.90;;;;;;5096641;28;20183;-71
2022/08/31 07:04:04;;;;;;;3.70;3.40;;;18.20;99.90;;;;;;5096788;28;20210;-73
2022/08/31 07:06:33;;;;;;;3.63;3.30;;;18.10;99.90;;;;;;5096461;28;20232;-74
2022/08/31 07:09:02;;;;;;;9.17;4.03;;;18.10;99.90;;;;;;5096734;28;20182;-73
2022/08/31 07:11:46;;;;;;;8.73;4.40;;;18.20;99.90;;;;;;5095467;28;20203;-78
2022/08/31 07:14:16;;;;;;;9.73;4.17;;;18.30;99.90;;;;;;5096217;28;20174;-72
2022/08/31 07:16:43;;;;;;;4.03;3.63;;;18.50;99.90;;;;;;5096374;28;20167;-72
2022/08/31 07:19:10;;;;;;;4.30;3.90;;;18.70;99.90;;;;;;5096443;28;20167;-72
2022/08/31 07:21:46;;;;;;;7.93;4.10;;;18.70;99.90;;;;;;5096292;28;20177;-71
2022/08/31 07:24:15;;;;;;;6.23;3.57;;;18.70;99.90;;;;;;5096416;28;20478;-75
2022/08/31 07:26:44;;;;;;;16.80;4.27;;;18.80;99.90;;;;;;5096131;28;20201;-74
2022/08/31 07:29:13;;;;;;;4.30;3.97;;;18.80;99.90;;;;;;5095320;28;20185;-76
2022/08/31 07:31:45;;;;;;;4.83;4.33;;;18.70;99.90;;;;;;5096064;28;20285;-74
2022/08/31 07:34:24;;;;;;;4.87;4.53;;;18.80;99.90;;;;;;5095150;28;20170;-72
2022/08/31 07:42:27;;;;;;;4.57;3.93;;;18.80;99.90;;;;;;5095936;28;20181;-74
2022/08/31 07:44:55;;;;;;;7.97;3.30;;;18.80;99.90;;;;;;5096036;28;20193;-72
2022/08/31 07:47:22;;;;;;;5.40;3.63;;;18.70;99.90;;;;;;5094827;28;20178;-72
2022/08/31 07:49:50;;;;;;;7.77;4.90;;;18.50;99.90;;;;;;5095997;28;20582;-72
2022/08/31 07:52:20;;;;;;;6.63;3.97;;;18.40;99.90;;;;;;5095938;28;20297;-75
2022/08/31 07:54:47;;;;;;;4.97;3.90;;;18.30;99.90;;;;;;5096101;28;20187;-72
2022/08/31 07:57:14;;;;;;;4.43;2.93;;;18.20;99.90;;;;;;5094496;28;20462;-74
2022/08/31 07:59:40;;;;;;;9.13;3.53;;;18.30;99.90;;;;;;5095628;28;20590;-74
2022/08/31 08:02:09;;;;;;;6.57;3.77;;;18.40;99.90;;;;;;5095878;28;20283;-75
2022/08/31 08:04:38;;;;;;;4.27;3.97;;;18.30;99.90;;;;;;5094714;28;20178;-76
2022/08/31 08:07:04;;;;;;;4.03;3.60;;;18.20;99.90;;;;;;5096866;28;20166;-76
2022/08/31 08:09:32;;;;;;;5.13;3.80;;;18.20;99.90;;;;;;5098983;28;20482;-77
2022/08/31 08:12:03;;;;;;;4.77;3.50;;;18.20;99.90;;;;;;5099744;28;20222;-73
2022/08/31 08:14:29;;;;;;;4.97;3.50;;;17.90;99.90;;;;;;5099818;28;20243;-76
2022/08/31 08:16:55;;;;;;;5.13;3.83;;;17.90;99.90;;;;;;5099972;28;20190;-72
2022/08/31 08:19:21;;;;;;;3.87;3.37;;;17.80;99.90;;;;;;5099890;28;20582;-75
2022/08/31 08:21:47;;;;;;;6.47;3.70;;;17.90;99.90;;;;;;5099901;28;20170;-72
2022/08/31 08:24:14;;;;;;;4.97;3.77;;;17.80;99.90;;;;;;5099840;28;20202;-73
2022/08/31 08:26:48;;;;;;;5.27;4.40;;;17.90;99.90;;;;;;5099529;28;20174;-71
2022/08/31 08:29:14;;;;;;;4.70;3.73;;;17.90;99.90;;;;;;5100007;28;20622;-71
2022/08/31 08:31:41;;;;;;;8.93;4.73;;;17.90;99.90;;;;;;5098635;28;20210;-72
2022/08/31 08:34:08;;;;;;;4.20;3.83;;;18.00;99.90;;;;;;5099863;28;20208;-71
2022/08/31 08:36:35;;;;;;;3.87;3.40;;;17.90;99.90;;;;;;5099578;28;20169;-70
2022/08/31 08:39:05;;;;;;;5.70;3.60;;;17.90;99.90;;;;;;5099691;28;20178;-70
2022/08/31 08:41:34;;;;;;;10.43;3.90;;;17.70;99.90;;;;;;5099363;28;20254;-72
2022/08/31 08:44:02;;;;;;;4.67;4.37;;;17.60;99.90;;;;;;5099501;28;20554;-71
2022/08/31 08:46:46;;;;;;;4.47;3.83;;;17.70;99.90;;;;;;5099412;28;20202;-72
2022/08/31 08:49:23;;;;;;;4.33;4.00;;;17.20;99.90;;;;;;5099294;28;20198;-72
2022/08/31 08:51:56;;;;;;;5.17;4.30;;;16.60;99.90;;;;;;5099442;28;20214;-72
2022/08/31 08:54:30;;;;;;;7.23;4.37;;;16.30;99.90;;;;;;5097946;28;20171;-71
2022/08/31 08:56:58;;;;;;;6.00;4.90;;;15.40;99.90;;;;;;5099218;28;20691;-71
2022/08/31 08:59:24;;;;;;;5.43;3.70;;;15.00;99.90;;;;;;5099038;28;20190;-70
2022/08/31 09:01:55;;;;;;;7.17;4.67;;;14.30;99.90;;;;;;5099026;28;20183;-71
2022/08/31 09:04:59;;;;;;;6.60;4.97;;;17.30;99.90;;;;;;5098922;28;20171;-73
2022/08/31 09:07:29;;;;;;;5.00;3.77;;;18.10;99.90;;;;;;5099092;28;20239;-71
2022/08/31 09:10:19;;;;;;;7.40;5.17;;;20.10;99.90;;;;;;5098612;28;20186;-72
2022/08/31 09:12:51;;;;;;;6.63;4.07;;;20.30;99.90;;;;;;5098829;28;20170;-71
2022/08/31 09:15:56;;;;;;;7.23;4.43;;;20.60;99.90;;;;;;5098745;28;20162;-72
2022/08/31 09:19:04;;;;;;;5.20;4.47;;;20.80;99.90;;;;;;5097852;28;20194;-70
2022/08/31 09:21:41;;;;;;;4.87;4.47;;;20.90;99.90;;;;;;5097676;28;20182;-74
2022/08/31 09:24:19;;;;;;;5.43;3.33;;;20.90;99.90;;;;;;5097429;28;20181;-72
2022/08/31 09:26:56;;;;;;;4.10;3.77;;;21.00;99.90;;;;;;5098553;28;20166;-72
2022/08/31 09:29:26;;;;;;;8.77;4.73;;;21.00;99.90;;;;;;5098869;28;20459;-70
2022/08/31 09:32:06;;;;;;;7.77;4.03;;;21.00;99.90;;;;;;5098641;28;20287;-74
2022/08/31 09:34:36;;;;;;;6.07;4.10;;;21.00;99.90;;;;;;5098400;28;20244;-70
2022/08/31 09:37:47;;;;;;;9.47;4.07;;;21.00;99.90;;;;;;5098361;28;20562;-72
2022/08/31 09:40:22;;;;;;;5.70;5.13;;;21.00;99.90;;;;;;5076052;28;20183;-74
2022/08/31 09:43:01;;;;;;;4.80;4.37;;;21.10;99.90;;;;;;5096689;28;20215;-72
2022/08/31 09:45:34;;;;;;;10.10;4.93;;;21.00;99.90;;;;;;5098191;28;20672;-75
2022/08/31 09:48:02;;;;;;;7.47;5.07;;;21.00;99.90;;;;;;5098189;28;20200;-73
2022/08/31 09:50:30;;;;;;;5.40;4.70;;;21.00;99.90;;;;;;5097832;28;20194;-70
2022/08/31 09:56:14;;;;;;;4.07;3.50;;;21.40;99.90;;;;;;5098271;28;20472;-73
2022/08/31 09:58:47;;;;;;;4.40;3.93;;;21.70;99.90;;;;;;5097882;28;20228;-74
2022/08/31 10:01:43;;;;;;;7.10;3.17;;;21.70;99.90;;;;;;5097854;28;20186;-73
2022/08/31 10:04:27;;;;;;;6.63;4.97;;;20.70;99.90;;;;;;5095717;28;20288;-71
2022/08/31 10:07:12;;;;;;;4.13;3.83;;;22.10;99.90;;;;;;5097437;28;20166;-72
2022/08/31 10:09:38;;;;;;;4.87;4.40;;;22.10;99.90;;;;;;5097835;28;20198;-70
2022/08/31 10:12:08;;;;;;;4.97;3.43;;;22.10;99.90;;;;;;5097591;28;20226;-70
2022/08/31 10:14:39;;;;;;;5.60;2.83;;;22.20;99.90;;;;;;5097671;28;20495;-71
2022/08/31 10:17:17;;;;;;;4.43;4.03;;;22.20;99.90;;;;;;5097551;28;20253;-70
2022/08/31 10:20:15;;;;;;;5.93;3.90;;;22.30;99.90;;;;;;5097544;28;20163;-72
2022/08/31 10:22:46;;;;;;;5.13;3.87;;;22.10;99.90;;;;;;5097102;28;20159;-73
2022/08/31 10:25:20;;;;;;;5.93;3.80;;;21.80;99.90;;;;;;5097511;28;20563;-70
2022/08/31 10:28:11;;;;;;;5.37;3.90;;;21.10;99.90;;;;;;5095970;28;20166;-70
2022/08/31 10:31:01;;;;;;;4.67;4.27;;;21.60;99.90;;;;;;5095938;28;20195;-69
2022/08/31 10:36:48;;;;;;;7.50;4.40;;;22.90;99.90;;;;;;5096780;28;20193;-72
2022/08/31 10:39:35;;;;;;;6.00;3.73;;;22.40;99.90;;;;;;5096178;28;20688;-71
2022/08/31 10:42:06;;;;;;;3.60;2.83;;;23.30;99.90;;;;;;5097072;28;20163;-70
2022/08/31 10:44:55;;;;;;;4.07;3.27;;;23.60;99.90;;;;;;5097141;28;20209;-72
2022/08/31 10:47:23;;;;;;;10.77;3.97;;;23.70;99.90;;;;;;5097246;28;20179;-72
2022/08/31 10:49:56;;;;;;;4.57;4.10;;;23.60;99.90;;;;;;5096881;28;20286;-72
2022/08/31 10:52:31;;;;;;;3.70;3.07;;;23.60;99.90;;;;;;5096675;28;20218;-73
2022/08/31 10:55:20;;;;;;;4.90;3.27;;;23.60;99.90;;;;;;5096843;28;20174;-73
2022/08/31 10:57:55;;;;;;;5.60;3.90;;;20.60;99.70;;;;;;5096588;28;20258;-73
2022/08/31 11:00:48;;;;;;;4.93;3.63;;;-21.40;85.70;;;;;;5096834;28;20217;-71
2022/08/31 11:03:46;;;;;;;5.07;3.70;;;24.40;99.50;;;;;;5096761;28;20513;-71
2022/08/31 11:06:31;;;;;;;4.10;3.47;;;24.60;99.50;;;;;;5096663;28;20174;-69
2022/08/31 11:09:07;;;;;;;4.80;4.27;;;24.70;99.30;;;;;;5096647;28;20241;-70
2022/08/31 11:11:46;;;;;;;5.03;4.50;;;24.70;99.20;;;;;;5096493;28;20270;-71
2022/08/31 11:14:30;;;;;;;5.70;4.00;;;24.70;98.50;;;;;;5096531;28;20574;-73
2022/08/31 11:17:26;;;;;;;6.23;4.00;;;24.50;99.10;;;;;;5096417;28;20171;-71
2022/08/31 11:20:30;;;;;;;4.20;3.83;;;24.50;98.60;;;;;;5096188;28;20317;-71
2022/08/31 11:23:25;;;;;;;13.60;6.00;;;24.50;99.20;;;;;;5096251;28;20174;-71
2022/08/31 11:26:00;;;;;;;6.23;4.73;;;25.10;98.40;;;;;;5090347;28;20733;-71
2022/08/31 11:28:52;;;;;;;4.90;3.77;;;25.00;97.70;;;;;;5096201;28;20182;-70
2022/08/31 11:31:24;;;;;;;7.07;4.07;;;25.00;98.00;;;;;;5090395;28;20219;-72
2022/08/31 11:33:55;;;;;;;5.23;4.70;;;-27.50;72.90;;;;;;5095910;28;20246;-70
2022/08/31 11:37:03;;;;;;;7.63;3.43;;;25.70;96.40;;;;;;5096223;28;20174;-70
2022/08/31 11:39:29;;;;;;;5.13;4.60;;;25.70;96.90;;;;;;5074096;28;20595;-77
2022/08/31 11:41:57;;;;;;;6.03;4.57;;;25.80;96.30;;;;;;5056566;28;20229;-79
2022/08/31 11:44:30;;;;;;;5.07;4.27;;;26.00;96.30;;;;;;5084997;28;20183;-74
2022/08/31 11:47:41;;;;;;;3.70;2.97;;;25.80;95.60;;;;;;5095980;28;20212;-72
2022/08/31 11:50:22;;;;;;;5.40;3.77;;;24.70;94.40;;;;;;5095579;28;20273;-70
2022/08/31 11:52:52;;;;;;;5.10;4.80;;;27.50;95.40;;;;;;5095988;28;20166;-71
2022/08/31 11:55:23;;;;;;;5.93;3.67;;;27.60;93.30;;;;;;5095836;28;20167;-74
2022/08/31 11:58:10;;;;;;;6.90;4.33;;;27.10;94.00;;;;;;5095854;28;20184;-70
2022/08/31 12:00:57;;;;;;;4.57;3.87;;;-40.00;53.80;;;;;;5095852;28;20174;-71
2022/08/31 12:03:42;;;;;;;9.47;4.83;;;-40.00;51.00;;;;;;5094469;28;20251;-71
2022/08/31 12:06:28;;;;;;;7.43;3.50;;;-40.00;52.00;;;;;;5095786;28;20166;-70
2022/08/31 12:09:25;;;;;;;7.15;4.13;;;-40.00;49.30;;;;;;5084411;28;20191;-70
2022/08/31 12:12:09;;;;;;;6.15;3.30;;;-40.00;49.80;;;;;;5095713;28;20194;-70
2022/08/31 12:14:59;;;;;;;3.55;3.22;;;-40.00;49.60;;;;;;5095764;28;20174;-72
2022/08/31 12:17:54;;;;;;;3.85;3.53;;;-40.00;47.40;;;;;;5095425;28;20244;-71
2022/08/31 12:24:08;;;;;;;6.38;4.50;;;30.90;84.80;;;;;;5095919;28;20273;-72
2022/08/31 12:26:42;;;;;;;4.97;4.25;;;30.60;86.70;;;;;;5095603;28;20253;-72
2022/08/31 12:29:28;;;;;;;4.47;4.13;;;28.00;84.60;;;;;;5094754;28;20182;-71
2022/08/31 12:32:07;;;;;;;5.50;4.97;;;-40.00;44.70;;;;;;5095246;28;20236;-70
2022/08/31 12:34:36;;;;;;;5.47;5.05;;;30.30;86.20;;;;;;5095577;28;20578;-71
2022/08/31 12:37:36;;;;;;;7.97;5.85;;;30.20;86.00;;;;;;5095498;28;20182;-73
2022/08/31 12:40:20;;;;;;;10.05;5.18;;;30.10;88.10;;;;;;5095374;28;20210;-72
2022/08/31 12:43:08;;;;;;;8.68;6.15;;;29.70;86.90;;;;;;5095608;28;20571;-73
2022/08/31 12:45:49;;;;;;;6.78;5.28;;;-40.00;47.50;;;;;;5095467;28;20171;-76
2022/08/31 12:48:43;;;;;;;7.35;6.63;;;-40.00;48.40;;;;;;5095437;28;20167;-74
2022/08/31 12:51:30;;;;;;;10.40;7.68;;;-40.00;50.00;;;;;;5095328;28;20217;-77
2022/08/31 12:53:56;;;;;;;9.63;8.13;;;-40.00;51.30;;;;;;5097670;28;20187;-77
2022/08/31 12:56:43;;;;;;;8.20;7.40;;;-40.00;51.40;;;;;;5099432;28;20207;-78
2022/08/31 12:59:20;;;;;;;9.53;7.43;;;-40.00;51.00;;;;;;5098795;28;20638;-72
2022/08/31 13:01:49;;;;;;;8.77;7.93;;;-40.00;51.80;;;;;;5097763;28;20186;-74
2022/08/31 13:04:17;;;;;;;8.13;7.33;;;-40.00;51.90;;;;;;5098955;28;20190;-75
2022/08/31 13:06:47;;;;;;;8.95;7.80;;;-40.00;49.60;;;;;;5098890;28;20220;-73
2022/08/31 13:09:42;;;;;;;14.88;8.93;;;-40.00;48.90;;;;;;5098871;28;20224;-71
2022/08/31 13:12:08;;;;;;;10.88;9.88;;;-40.00;50.40;;;;;;5094267;28;20528;-77
2022/08/31 13:14:42;;;;;;;10.50;7.95;;;-40.00;48.50;;;;;;5098784;28;20375;-76
2022/08/31 13:17:16;;;;;;;10.20;6.88;;;-40.00;47.60;;;;;;5098590;28;20167;-73
2022/08/31 13:19:57;;;;;;;8.30;7.47;;;-40.00;47.10;;;;;;5098864;28;20476;-74
2022/08/31 13:22:29;;;;;;;9.65;8.55;;;-40.00;47.90;;;;;;5098681;28;20154;-78
2022/08/31 13:25:09;;;;;;;12.27;8.57;;;-40.00;48.60;;;;;;5098545;28;20162;-77
2022/08/31 13:27:37;;;;;;;11.80;8.23;;;-40.00;49.50;;;;;;5098505;28;20585;-73